sensor_id;sensor_type;location;lat;lon;timestamp;pressure;altitude;pressure_sealevel;temperature;humidity
10482;BME280;5288;42.334;23.876;2023-10-19T00:00:56;56407.16;;;-140.56;100.00
10482;BME280;5288;42.334;23.876;2023-10-19T00:03:24;56407.16;;;-140.56;100.00
10482;BME280;5288;42.334;23.876;2023-10-19T00:05:50;56426.91;;;-140.56;100.00
10482;BME280;5288;42.334;23.876;2023-10-19T00:08:17;56409.13;;;-140.56;100.00
10482;BME280;5288;42.334;23.876;2023-10-19T00:10:47;56413.06;;;-140.56;100.00
10482;BME280;5288;42.334;23.876;2023-10-19T00:13:19;56458.53;;;-140.56;100.00
10482;BME280;5288;42.334;23.876;2023-10-19T00:15:45;56438.78;;;-140.56;100.00
10482;BME280;5288;42.334;23.876;2023-10-19T00:18:18;56395.28;;;-140.56;100.00
10482;BME280;5288;42.334;23.876;2023-10-19T00:20:49;56434.81;;;-140.56;100.00
10482;BME280;5288;42.334;23.876;2023-10-19T00:23:19;56456.56;;;-140.56;100.00
10482;BME280;5288;42.334;23.876;2023-10-19T00:25:54;56440.75;;;-140.56;100.00
10482;BME280;5288;42.334;23.876;2023-10-19T00:28:22;56424.94;;;-140.56;100.00
10482;BME280;5288;42.334;23.876;2023-10-19T00:30:48;56448.66;;;-140.56;100.00
10482;BME280;5288;42.334;23.876;2023-10-19T00:33:20;56409.13;;;-140.56;100.00
10482;BME280;5288;42.334;23.876;2023-10-19T00:35:47;56409.13;;;-140.56;100.00
10482;BME280;5288;42.334;23.876;2023-10-19T00:38:23;56438.78;;;-140.56;100.00
10482;BME280;5288;42.334;23.876;2023-10-19T00:41:05;56438.78;;;-140.56;100.00
10482;BME280;5288;42.334;23.876;2023-10-19T00:43:38;56415.06;;;-140.56;100.00
10482;BME280;5288;42.334;23.876;2023-10-19T00:46:10;56407.16;;;-140.56;100.00
10482;BME280;5288;42.334;23.876;2023-10-19T00:48:44;56405.16;;;-140.56;100.00
10482;BME280;5288;42.334;23.876;2023-10-19T00:51:12;56432.84;;;-140.56;100.00
10482;BME280;5288;42.334;23.876;2023-10-19T00:53:53;56409.13;;;-140.56;100.00
10482;BME280;5288;42.334;23.876;2023-10-19T00:56:23;56444.69;;;-140.56;100.00
10482;BME280;5288;42.334;23.876;2023-10-19T00:58:52;56420.97;;;-140.56;100.00
10482;BME280;5288;42.334;23.876;2023-10-19T01:01:28;56448.66;;;-140.56;100.00
10482;BME280;5288;42.334;23.876;2023-10-19T01:03:57;56417.03;;;-140.56;100.00
10482;BME280;5288;42.334;23.876;2023-10-19T01:06:24;56448.66;;;-140.56;100.00
10482;BME280;5288;42.334;23.876;2023-10-19T01:08:57;56426.91;;;-140.56;100.00
10482;BME280;5288;42.334;23.876;2023-10-19T01:11:24;56448.66;;;-140.56;100.00
10482;BME280;5288;42.334;23.876;2023-10-19T01:13:54;56432.84;;;-140.56;100.00
10482;BME280;5288;42.334;23.876;2023-10-19T01:16:21;56434.81;;;-140.56;100.00
10482;BME280;5288;42.334;23.876;2023-10-19T01:18:49;56456.56;;;-140.56;100.00
10482;BME280;5288;42.334;23.876;2023-10-19T01:21:24;56430.88;;;-140.56;100.00
10482;BME280;5288;42.334;23.876;2023-10-19T01:24:06;56442.72;;;-140.56;100.00
10482;BME280;5288;42.334;23.876;2023-10-19T01:26:33;56393.31;;;-140.56;100.00
10482;BME280;5288;42.334;23.876;2023-10-19T01:29:03;56424.94;;;-140.56;100.00
10482;BME280;5288;42.334;23.876;2023-10-19T01:31:38;56415.06;;;-140.56;100.00
10482;BME280;5288;42.334;23.876;2023-10-19T01:34:17;56440.75;;;-140.56;100.00
10482;BME280;5288;42.334;23.876;2023-10-19T01:36:45;56462.47;;;-140.56;100.00
10482;BME280;5288;42.334;23.876;2023-10-19T01:39:17;56420.97;;;-140.56;100.00
10482;BME280;5288;42.334;23.876;2023-10-19T01:41:44;56424.94;;;-140.56;100.00
10482;BME280;5288;42.334;23.876;2023-10-19T01:44:11;56426.91;;;-140.56;100.00
10482;BME280;5288;42.334;23.876;2023-10-19T01:46:42;56405.16;;;-140.56;100.00
10482;BME280;5288;42.334;23.876;2023-10-19T01:49:09;56440.75;;;-140.56;100.00
10482;BME280;5288;42.334;23.876;2023-10-19T01:51:37;56448.66;;;-140.56;100.00
10482;BME280;5288;42.334;23.876;2023-10-19T01:54:04;56462.47;;;-140.56;100.00
10482;BME280;5288;42.334;23.876;2023-10-19T01:56:34;56419.00;;;-140.56;100.00
10482;BME280;5288;42.334;23.876;2023-10-19T01:59:01;56409.13;;;-140.56;100.00
10482;BME280;5288;42.334;23.876;2023-10-19T02:01:30;56472.38;;;-140.56;100.00
10482;BME280;5288;42.334;23.876;2023-10-19T02:03:59;56413.06;;;-140.56;100.00
10482;BME280;5288;42.334;23.876;2023-10-19T02:06:28;56442.72;;;-140.56;100.00
10482;BME280;5288;42.334;23.876;2023-10-19T02:09:00;56413.06;;;-140.56;100.00
10482;BME280;5288;42.334;23.876;2023-10-19T02:11:36;56417.03;;;-140.56;100.00
10482;BME280;5288;42.334;23.876;2023-10-19T02:14:03;56420.97;;;-140.56;100.00
10482;BME280;5288;42.334;23.876;2023-10-19T02:16:39;56415.06;;;-140.56;100.00
10482;BME280;5288;42.334;23.876;2023-10-19T02:19:06;56428.88;;;-140.56;100.00
10482;BME280;5288;42.334;23.876;2023-10-19T02:21:33;56440.75;;;-140.56;100.00
10482;BME280;5288;42.334;23.876;2023-10-19T02:24:05;56424.94;;;-140.56;100.00
10482;BME280;5288;42.334;23.876;2023-10-19T02:26:33;56419.00;;;-140.56;100.00
10482;BME280;5288;42.334;23.876;2023-10-19T02:29:01;56397.25;;;-140.56;100.00
10482;BME280;5288;42.334;23.876;2023-10-19T02:31:33;56420.97;;;-140.56;100.00
10482;BME280;5288;42.334;23.876;2023-10-19T02:33:59;56409.13;;;-140.56;100.00
10482;BME280;5288;42.334;23.876;2023-10-19T02:36:27;56397.25;;;-140.56;100.00
10482;BME280;5288;42.334;23.876;2023-10-19T02:38:54;56464.47;;;-140.56;100.00
10482;BME280;5288;42.334;23.876;2023-10-19T02:41:24;56426.91;;;-140.56;100.00
10482;BME280;5288;42.334;23.876;2023-10-19T02:43:52;56428.88;;;-140.56;100.00
10482;BME280;5288;42.334;23.876;2023-10-19T02:46:32;56448.66;;;-140.56;100.00
10482;BME280;5288;42.334;23.876;2023-10-19T02:49:00;56397.25;;;-140.56;100.00
10482;BME280;5288;42.334;23.876;2023-10-19T02:51:29;56391.34;;;-140.56;100.00
10482;BME280;5288;42.334;23.876;2023-10-19T02:53:55;56430.88;;;-140.56;100.00
10482;BME280;5288;42.334;23.876;2023-10-19T02:56:25;56440.75;;;-140.56;100.00
10482;BME280;5288;42.334;23.876;2023-10-19T02:58:53;56407.16;;;-140.56;100.00
10482;BME280;5288;42.334;23.876;2023-10-19T03:01:20;56417.03;;;-140.56;100.00
10482;BME280;5288;42.334;23.876;2023-10-19T03:03:56;56426.91;;;-140.56;100.00
10482;BME280;5288;42.334;23.876;2023-10-19T03:06:25;56422.97;;;-140.56;100.00
10482;BME280;5288;42.334;23.876;2023-10-19T03:08:56;56420.97;;;-140.56;100.00
10482;BME280;5288;42.334;23.876;2023-10-19T03:11:23;56432.84;;;-140.56;100.00
10482;BME280;5288;42.334;23.876;2023-10-19T03:13:50;56395.28;;;-140.56;100.00
10482;BME280;5288;42.334;23.876;2023-10-19T03:16:17;56440.75;;;-140.56;99.46
10482;BME280;5288;42.334;23.876;2023-10-19T03:18:44;56405.16;;;-140.56;99.03
10482;BME280;5288;42.334;23.876;2023-10-19T03:21:12;56419.00;;;-140.56;98.92
10482;BME280;5288;42.334;23.876;2023-10-19T03:23:39;56438.78;;;-140.56;98.83
10482;BME280;5288;42.334;23.876;2023-10-19T03:26:06;56440.75;;;-140.56;98.20
10482;BME280;5288;42.334;23.876;2023-10-19T03:28:53;56450.63;;;-140.56;98.58
10482;BME280;5288;42.334;23.876;2023-10-19T03:31:21;56415.06;;;-140.56;97.93
10482;BME280;5288;42.334;23.876;2023-10-19T03:33:50;56440.75;;;-140.56;98.13
10482;BME280;5288;42.334;23.876;2023-10-19T03:36:23;56442.72;;;-140.56;98.24
10482;BME280;5288;42.334;23.876;2023-10-19T03:38:50;56430.88;;;-140.56;98.00
10482;BME280;5288;42.334;23.876;2023-10-19T03:41:19;56409.13;;;-140.56;97.74
10482;BME280;5288;42.334;23.876;2023-10-19T03:43:48;56440.75;;;-140.56;98.00
10482;BME280;5288;42.334;23.876;2023-10-19T03:46:17;56448.66;;;-140.56;98.77
10482;BME280;5288;42.334;23.876;2023-10-19T03:48:55;56456.56;;;-140.56;99.26
10482;BME280;5288;42.334;23.876;2023-10-19T03:51:26;56446.69;;;-140.56;99.01
10482;BME280;5288;42.334;23.876;2023-10-19T03:54:05;56456.56;;;-140.56;98.81
10482;BME280;5288;42.334;23.876;2023-10-19T03:56:38;56432.84;;;-140.56;99.13
10482;BME280;5288;42.334;23.876;2023-10-19T03:59:06;56436.78;;;-140.56;99.89
10482;BME280;5288;42.334;23.876;2023-10-19T04:01:34;56434.81;;;-140.56;99.71
10482;BME280;5288;42.334;23.876;2023-10-19T04:04:01;56389.34;;;-140.56;100.00
10482;BME280;5288;42.334;23.876;2023-10-19T04:06:29;56452.59;;;-140.56;100.00
10482;BME280;5288;42.334;23.876;2023-10-19T04:08:56;56430.88;;;-140.56;100.00
10482;BME280;5288;42.334;23.876;2023-10-19T04:11:24;56426.91;;;-140.56;100.00
10482;BME280;5288;42.334;23.876;2023-10-19T04:13:58;56440.75;;;-140.56;100.00
10482;BME280;5288;42.334;23.876;2023-10-19T04:16:29;56460.50;;;-140.56;100.00
10482;BME280;5288;42.334;23.876;2023-10-19T04:18:57;56456.56;;;-140.56;100.00
10482;BME280;5288;42.334;23.876;2023-10-19T04:21:25;56430.88;;;-140.56;100.00
10482;BME280;5288;42.334;23.876;2023-10-19T04:23:53;56428.88;;;-140.56;100.00
10482;BME280;5288;42.334;23.876;2023-10-19T04:26:22;56460.50;;;-140.56;100.00
10482;BME280;5288;42.334;23.876;2023-10-19T04:28:50;56417.03;;;-140.56;100.00
10482;BME280;5288;42.334;23.876;2023-10-19T04:31:17;56440.75;;;-140.56;100.00
10482;BME280;5288;42.334;23.876;2023-10-19T04:33:45;56432.84;;;-140.56;100.00
10482;BME280;5288;42.334;23.876;2023-10-19T04:36:15;56444.69;;;-140.56;100.00
10482;BME280;5288;42.334;23.876;2023-10-19T04:38:46;56438.78;;;-140.56;100.00
10482;BME280;5288;42.334;23.876;2023-10-19T04:41:15;56422.97;;;-140.56;100.00
10482;BME280;5288;42.334;23.876;2023-10-19T04:43:42;56462.47;;;-140.56;100.00
10482;BME280;5288;42.334;23.876;2023-10-19T04:46:15;56420.97;;;-140.56;100.00
10482;BME280;5288;42.334;23.876;2023-10-19T04:48:44;56436.78;;;-140.56;100.00
10482;BME280;5288;42.334;23.876;2023-10-19T04:51:11;56419.00;;;-140.56;100.00
10482;BME280;5288;42.334;23.876;2023-10-19T04:53:38;56460.50;;;-140.56;100.00
10482;BME280;5288;42.334;23.876;2023-10-19T04:56:06;56462.47;;;-140.56;100.00
10482;BME280;5288;42.334;23.876;2023-10-19T04:58:37;56436.78;;;-140.56;100.00
10482;BME280;5288;42.334;23.876;2023-10-19T05:01:04;56424.94;;;-140.56;100.00
10482;BME280;5288;42.334;23.876;2023-10-19T05:03:31;56448.66;;;-140.56;100.00
10482;BME280;5288;42.334;23.876;2023-10-19T05:05:58;56438.78;;;-140.56;100.00
10482;BME280;5288;42.334;23.876;2023-10-19T05:08:26;56432.84;;;-140.56;100.00
10482;BME280;5288;42.334;23.876;2023-10-19T05:10:54;56488.19;;;-140.56;100.00
10482;BME280;5288;42.334;23.876;2023-10-19T05:13:23;56446.69;;;-140.56;100.00
10482;BME280;5288;42.334;23.876;2023-10-19T05:15:52;56474.34;;;-140.56;100.00
10482;BME280;5288;42.334;23.876;2023-10-19T05:18:20;56464.47;;;-140.56;100.00
10482;BME280;5288;42.334;23.876;2023-10-19T05:20:47;56460.50;;;-140.56;100.00
10482;BME280;5288;42.334;23.876;2023-10-19T05:23:15;56434.81;;;-140.56;99.35
10482;BME280;5288;42.334;23.876;2023-10-19T05:25:42;56446.69;;;-140.56;99.43
10482;BME280;5288;42.334;23.876;2023-10-19T05:28:10;56442.72;;;-140.56;100.00
10482;BME280;5288;42.334;23.876;2023-10-19T05:30:37;56462.47;;;-140.56;100.00
10482;BME280;5288;42.334;23.876;2023-10-19T05:33:05;56468.41;;;-140.56;100.00
10482;BME280;5288;42.334;23.876;2023-10-19T05:35:32;56452.59;;;-140.56;100.00
10482;BME280;5288;42.334;23.876;2023-10-19T05:38:06;56474.34;;;-140.56;100.00
10482;BME280;5288;42.334;23.876;2023-10-19T05:40:33;56480.28;;;-140.56;100.00
10482;BME280;5288;42.334;23.876;2023-10-19T05:43:02;56478.28;;;-140.56;100.00
10482;BME280;5288;42.334;23.876;2023-10-19T05:45:29;56434.81;;;-140.56;100.00
10482;BME280;5288;42.334;23.876;2023-10-19T05:47:57;56442.72;;;-140.56;100.00
10482;BME280;5288;42.334;23.876;2023-10-19T05:50:27;56438.78;;;-140.56;100.00
10482;BME280;5288;42.334;23.876;2023-10-19T05:52:54;56472.38;;;-140.56;100.00
10482;BME280;5288;42.334;23.876;2023-10-19T05:55:21;56454.59;;;-140.56;100.00
10482;BME280;5288;42.334;23.876;2023-10-19T05:57:49;56458.53;;;-140.56;100.00
10482;BME280;5288;42.334;23.876;2023-10-19T06:00:16;56430.88;;;-140.56;100.00
10482;BME280;5288;42.334;23.876;2023-10-19T06:02:46;56460.50;;;-140.56;100.00
10482;BME280;5288;42.334;23.876;2023-10-19T06:05:15;56460.50;;;-140.56;100.00
10482;BME280;5288;42.334;23.876;2023-10-19T06:07:44;56436.78;;;-140.56;100.00
10482;BME280;5288;42.334;23.876;2023-10-19T06:10:13;56458.53;;;-140.56;100.00
10482;BME280;5288;42.334;23.876;2023-10-19T06:12:42;56476.31;;;-140.56;100.00
10482;BME280;5288;42.334;23.876;2023-10-19T06:15:10;56428.88;;;-140.56;100.00
10482;BME280;5288;42.334;23.876;2023-10-19T06:17:38;56448.66;;;-140.56;100.00
10482;BME280;5288;42.334;23.876;2023-10-19T06:20:07;56438.78;;;-140.56;100.00
10482;BME280;5288;42.334;23.876;2023-10-19T06:22:47;56452.59;;;-140.56;100.00
10482;BME280;5288;42.334;23.876;2023-10-19T06:25:19;56432.84;;;-140.56;100.00
10482;BME280;5288;42.334;23.876;2023-10-19T06:27:49;56415.06;;;-140.56;100.00
10482;BME280;5288;42.334;23.876;2023-10-19T06:30:18;56428.88;;;-140.56;100.00
10482;BME280;5288;42.334;23.876;2023-10-19T06:32:49;56442.72;;;-140.56;100.00
10482;BME280;5288;42.334;23.876;2023-10-19T06:35:17;56438.78;;;-140.56;100.00
10482;BME280;5288;42.334;23.876;2023-10-19T06:37:46;56472.38;;;-140.56;100.00
10482;BME280;5288;42.334;23.876;2023-10-19T06:40:15;56460.50;;;-140.56;100.00
10482;BME280;5288;42.334;23.876;2023-10-19T06:42:43;56415.06;;;-140.56;100.00
10482;BME280;5288;42.334;23.876;2023-10-19T06:45:11;56426.91;;;-140.56;100.00
10482;BME280;5288;42.334;23.876;2023-10-19T06:47:40;56415.06;;;-140.56;100.00
10482;BME280;5288;42.334;23.876;2023-10-19T06:50:09;56460.50;;;-140.56;100.00
10482;BME280;5288;42.334;23.876;2023-10-19T06:52:38;56401.22;;;-140.56;100.00
10482;BME280;5288;42.334;23.876;2023-10-19T06:55:08;56399.25;;;-140.56;100.00
10482;BME280;5288;42.334;23.876;2023-10-19T06:57:40;56428.88;;;-140.56;100.00
10482;BME280;5288;42.334;23.876;2023-10-19T07:00:10;56446.69;;;-140.56;100.00
10482;BME280;5288;42.334;23.876;2023-10-19T07:02:40;56393.31;;;-140.56;100.00
10482;BME280;5288;42.334;23.876;2023-10-19T07:05:09;56428.88;;;-140.56;100.00
10482;BME280;5288;42.334;23.876;2023-10-19T07:07:39;56438.78;;;-140.56;100.00
10482;BME280;5288;42.334;23.876;2023-10-19T07:10:09;56411.09;;;-140.56;100.00
10482;BME280;5288;42.334;23.876;2023-10-19T07:12:38;56405.16;;;-140.56;100.00
10482;BME280;5288;42.334;23.876;2023-10-19T07:15:07;56422.97;;;-140.56;100.00
10482;BME280;5288;42.334;23.876;2023-10-19T07:17:35;56420.97;;;-140.56;100.00
10482;BME280;5288;42.334;23.876;2023-10-19T07:20:04;56399.25;;;-140.56;100.00
10482;BME280;5288;42.334;23.876;2023-10-19T07:22:34;56415.06;;;-140.56;100.00
10482;BME280;5288;42.334;23.876;2023-10-19T07:25:04;56407.16;;;-140.56;100.00
10482;BME280;5288;42.334;23.876;2023-10-19T07:27:33;56373.56;;;-140.56;100.00
10482;BME280;5288;42.334;23.876;2023-10-19T07:30:00;56399.25;;;-140.56;100.00
10482;BME280;5288;42.334;23.876;2023-10-19T07:32:30;56369.59;;;-140.56;100.00
10482;BME280;5288;42.334;23.876;2023-10-19T07:34:58;56415.06;;;-140.56;100.00
10482;BME280;5288;42.334;23.876;2023-10-19T07:37:26;56391.34;;;-140.56;100.00
10482;BME280;5288;42.334;23.876;2023-10-19T07:39:54;56343.91;;;-140.56;98.95
10482;BME280;5288;42.334;23.876;2023-10-19T07:42:22;56365.66;;;-140.56;98.70
10482;BME280;5288;42.334;23.876;2023-10-19T07:44:51;56361.69;;;-140.56;98.86
10482;BME280;5288;42.334;23.876;2023-10-19T07:47:18;56397.25;;;-140.56;98.07
10482;BME280;5288;42.334;23.876;2023-10-19T07:49:45;56324.13;;;-140.56;95.69
10482;BME280;5288;42.334;23.876;2023-10-19T07:52:13;56361.69;;;-140.56;94.89
10482;BME280;5288;42.334;23.876;2023-10-19T07:54:40;56334.03;;;-140.56;94.16
10482;BME280;5288;42.334;23.876;2023-10-19T07:57:07;56361.69;;;-140.56;90.61
10482;BME280;5288;42.334;23.876;2023-10-19T07:59:38;56324.13;;;-140.56;89.80
10482;BME280;5288;42.334;23.876;2023-10-19T08:02:06;56304.38;;;-140.56;89.88
10482;BME280;5288;42.334;23.876;2023-10-19T08:04:34;56375.53;;;-140.56;88.06
10482;BME280;5288;42.334;23.876;2023-10-19T08:07:02;56324.13;;;-140.56;87.22
10482;BME280;5288;42.334;23.876;2023-10-19T08:09:30;56334.03;;;-140.56;87.47
10482;BME280;5288;42.334;23.876;2023-10-19T08:12:00;56320.19;;;-140.56;86.13
10482;BME280;5288;42.334;23.876;2023-10-19T08:14:31;56298.44;;;-140.56;85.26
10482;BME280;5288;42.334;23.876;2023-10-19T08:16:58;56328.09;;;-140.56;84.13
10482;BME280;5288;42.334;23.876;2023-10-19T08:19:27;56320.19;;;-140.56;83.91
10482;BME280;5288;42.334;23.876;2023-10-19T08:21:56;56328.09;;;-140.56;80.41
10482;BME280;5288;42.334;23.876;2023-10-19T08:24:24;56292.53;;;-140.56;80.06
10482;BME280;5288;42.334;23.876;2023-10-19T08:26:55;56326.13;;;-140.56;79.15
10482;BME280;5288;42.334;23.876;2023-10-19T08:29:22;56278.69;;;-140.56;79.76
10482;BME280;5288;42.334;23.876;2023-10-19T08:31:49;56314.25;;;-140.56;78.54
10482;BME280;5288;42.334;23.876;2023-10-19T08:34:16;56276.72;;;-140.56;78.53
10482;BME280;5288;42.334;23.876;2023-10-19T08:36:49;56316.25;;;-140.56;76.66
10482;BME280;5288;42.334;23.876;2023-10-19T08:39:17;56308.34;;;-140.56;76.90
10482;BME280;5288;42.334;23.876;2023-10-19T08:41:44;56298.44;;;-140.56;77.40
10482;BME280;5288;42.334;23.876;2023-10-19T08:44:13;56318.22;;;-140.56;77.27
10482;BME280;5288;42.334;23.876;2023-10-19T08:46:43;56302.41;;;-140.56;77.48
10482;BME280;5288;42.334;23.876;2023-10-19T08:49:11;56288.56;;;-140.56;78.52
10482;BME280;5288;42.334;23.876;2023-10-19T08:51:39;56308.34;;;-140.56;75.06
10482;BME280;5288;42.334;23.876;2023-10-19T08:54:07;56278.69;;;-140.56;74.18
10482;BME280;5288;42.334;23.876;2023-10-19T08:56:36;56272.75;;;-140.56;72.71
10482;BME280;5288;42.334;23.876;2023-10-19T08:59:03;56260.91;;;-140.56;73.45
10482;BME280;5288;42.334;23.876;2023-10-19T09:01:31;56243.13;;;-140.56;73.53
10482;BME280;5288;42.334;23.876;2023-10-19T09:04:00;56284.63;;;-140.56;71.66
10482;BME280;5288;42.334;23.876;2023-10-19T09:06:27;56290.53;;;-140.56;71.69
10482;BME280;5288;42.334;23.876;2023-10-19T09:08:55;56249.03;;;-140.56;71.68
10482;BME280;5288;42.334;23.876;2023-10-19T09:11:24;56272.75;;;-140.56;71.21
10482;BME280;5288;42.334;23.876;2023-10-19T09:13:52;56262.88;;;-140.56;72.95
10482;BME280;5288;42.334;23.876;2023-10-19T09:16:21;56272.75;;;-140.56;70.51
10482;BME280;5288;42.334;23.876;2023-10-19T09:18:50;56274.72;;;-140.56;70.99
10482;BME280;5288;42.334;23.876;2023-10-19T09:21:18;56274.72;;;-140.56;70.42
10482;BME280;5288;42.334;23.876;2023-10-19T09:23:51;56262.88;;;-140.56;69.66
10482;BME280;5288;42.334;23.876;2023-10-19T09:26:18;56254.97;;;-140.56;72.34
10482;BME280;5288;42.334;23.876;2023-10-19T09:28:49;56268.81;;;-140.56;71.22
10482;BME280;5288;42.334;23.876;2023-10-19T09:31:17;56239.16;;;-140.56;71.06
10482;BME280;5288;42.334;23.876;2023-10-19T09:33:45;56258.94;;;-140.56;67.95
10482;BME280;5288;42.334;23.876;2023-10-19T09:36:13;56225.31;;;-140.56;66.40
10482;BME280;5288;42.334;23.876;2023-10-19T09:38:44;56241.13;;;-140.56;67.53
10482;BME280;5288;42.334;23.876;2023-10-19T09:41:16;56241.13;;;-140.56;66.92
10482;BME280;5288;42.334;23.876;2023-10-19T09:43:46;56219.41;;;-140.56;65.30
10482;BME280;5288;42.334;23.876;2023-10-19T09:46:21;56253.00;;;-140.56;65.70
10482;BME280;5288;42.334;23.876;2023-10-19T09:48:49;56249.03;;;-140.56;66.16
10482;BME280;5288;42.334;23.876;2023-10-19T09:51:18;56243.13;;;-140.56;66.69
10482;BME280;5288;42.334;23.876;2023-10-19T09:53:49;56253.00;;;-140.56;65.37
10482;BME280;5288;42.334;23.876;2023-10-19T09:56:21;56225.31;;;-140.56;66.39
10482;BME280;5288;42.334;23.876;2023-10-19T09:58:54;56235.22;;;-140.56;66.35
10482;BME280;5288;42.334;23.876;2023-10-19T10:01:23;56249.03;;;-140.56;65.67
10482;BME280;5288;42.334;23.876;2023-10-19T10:03:53;56227.31;;;-140.56;66.22
10482;BME280;5288;42.334;23.876;2023-10-19T10:06:29;56225.31;;;-140.56;66.70
10482;BME280;5288;42.334;23.876;2023-10-19T10:08:58;56237.19;;;-140.56;66.53
10482;BME280;5288;42.334;23.876;2023-10-19T10:11:27;56253.00;;;-140.56;64.66
10482;BME280;5288;42.334;23.876;2023-10-19T10:13:55;56237.19;;;-140.56;64.69
10482;BME280;5288;42.334;23.876;2023-10-19T10:16:25;56247.06;;;-140.56;63.71
10482;BME280;5288;42.334;23.876;2023-10-19T10:18:55;56253.00;;;-140.56;62.75
10482;BME280;5288;42.334;23.876;2023-10-19T10:21:25;56209.50;;;-140.56;62.04
10482;BME280;5288;42.334;23.876;2023-10-19T10:23:53;56217.41;;;-140.56;60.46
10482;BME280;5288;42.334;23.876;2023-10-19T10:26:23;56229.28;;;-140.56;57.83
10482;BME280;5288;42.334;23.876;2023-10-19T10:29:11;56221.38;;;-140.56;56.89
10482;BME280;5288;42.334;23.876;2023-10-19T10:31:44;56170.00;;;-140.56;54.85
10482;BME280;5288;42.334;23.876;2023-10-19T10:34:41;56166.03;;;-140.56;55.97
10482;BME280;5288;42.334;23.876;2023-10-19T10:37:10;56166.03;;;-140.56;53.95
10482;BME280;5288;42.334;23.876;2023-10-19T10:39:39;56199.63;;;-140.56;53.05
10482;BME280;5288;42.334;23.876;2023-10-19T10:42:08;56152.22;;;-140.56;52.80
10482;BME280;5288;42.334;23.876;2023-10-19T10:44:37;56162.09;;;-140.56;49.70
10482;BME280;5288;42.334;23.876;2023-10-19T10:47:08;56175.91;;;-140.56;49.74
10482;BME280;5288;42.334;23.876;2023-10-19T10:49:49;56160.13;;;-140.56;49.43
10482;BME280;5288;42.334;23.876;2023-10-19T10:52:30;56152.22;;;-140.56;48.84
10482;BME280;5288;42.334;23.876;2023-10-19T10:54:58;56130.47;;;-140.56;49.35
10482;BME280;5288;42.334;23.876;2023-10-19T10:57:31;56144.31;;;-140.56;48.89
10482;BME280;5288;42.334;23.876;2023-10-19T11:00:05;56100.81;;;-140.56;48.38
10482;BME280;5288;42.334;23.876;2023-10-19T11:02:36;56136.41;;;-140.56;47.30
10482;BME280;5288;42.334;23.876;2023-10-19T11:05:08;56140.34;;;-140.56;45.90
10482;BME280;5288;42.334;23.876;2023-10-19T11:07:37;56140.34;;;-140.56;46.73
10482;BME280;5288;42.334;23.876;2023-10-19T11:10:05;56122.56;;;-140.56;45.90
10482;BME280;5288;42.334;23.876;2023-10-19T11:12:32;56138.38;;;-140.56;46.59
10482;BME280;5288;42.334;23.876;2023-10-19T11:15:00;56138.38;;;-140.56;47.55
10482;BME280;5288;42.334;23.876;2023-10-19T11:17:42;56122.56;;;-140.56;44.63
10482;BME280;5288;42.334;23.876;2023-10-19T11:20:21;56132.44;;;-140.56;44.36
10482;BME280;5288;42.334;23.876;2023-10-19T11:22:49;56092.91;;;-140.56;43.71
10482;BME280;5288;42.334;23.876;2023-10-19T11:25:20;56118.59;;;-140.56;43.79
10482;BME280;5288;42.334;23.876;2023-10-19T11:27:47;56106.75;;;-140.56;42.87
10482;BME280;5288;42.334;23.876;2023-10-19T11:30:23;56092.91;;;-140.56;43.41
10482;BME280;5288;42.334;23.876;2023-10-19T11:32:52;56100.81;;;-140.56;43.61
10482;BME280;5288;42.334;23.876;2023-10-19T11:35:23;56126.50;;;-140.56;43.68
10482;BME280;5288;42.334;23.876;2023-10-19T11:37:51;56124.53;;;-140.56;42.86
10482;BME280;5288;42.334;23.876;2023-10-19T11:40:19;56092.91;;;-140.56;43.23
10482;BME280;5288;42.334;23.876;2023-10-19T11:42:47;56092.91;;;-140.56;43.54
10482;BME280;5288;42.334;23.876;2023-10-19T11:45:14;56069.22;;;-140.56;42.35
10482;BME280;5288;42.334;23.876;2023-10-19T11:47:42;56075.13;;;-140.56;42.31
10482;BME280;5288;42.334;23.876;2023-10-19T11:50:11;56104.78;;;-140.56;42.10
10482;BME280;5288;42.334;23.876;2023-10-19T11:52:41;56090.94;;;-140.56;42.12
10482;BME280;5288;42.334;23.876;2023-10-19T11:55:08;56102.81;;;-140.56;41.51
10482;BME280;5288;42.334;23.876;2023-10-19T11:57:36;56118.59;;;-140.56;41.43
10482;BME280;5288;42.334;23.876;2023-10-19T12:00:03;56061.31;;;-140.56;41.17
10482;BME280;5288;42.334;23.876;2023-10-19T12:02:35;56047.47;;;-140.56;40.84
10482;BME280;5288;42.334;23.876;2023-10-19T12:05:04;56081.06;;;-140.56;40.22
10482;BME280;5288;42.334;23.876;2023-10-19T12:07:37;56114.66;;;-140.56;42.43
10482;BME280;5288;42.334;23.876;2023-10-19T12:10:05;56069.22;;;-140.56;41.95
10482;BME280;5288;42.334;23.876;2023-10-19T12:12:33;56063.28;;;-140.56;42.12
10482;BME280;5288;42.334;23.876;2023-10-19T12:15:00;56100.81;;;-140.56;42.32
10482;BME280;5288;42.334;23.876;2023-10-19T12:17:28;56077.09;;;-140.56;42.43
10482;BME280;5288;42.334;23.876;2023-10-19T12:19:56;56085.00;;;-140.56;41.43
10482;BME280;5288;42.334;23.876;2023-10-19T12:22:23;56075.13;;;-140.56;42.12
10482;BME280;5288;42.334;23.876;2023-10-19T12:24:55;56063.28;;;-140.56;41.63
10482;BME280;5288;42.334;23.876;2023-10-19T12:27:23;56049.44;;;-140.56;41.21
10482;BME280;5288;42.334;23.876;2023-10-19T12:29:51;56023.75;;;-140.56;41.35
10482;BME280;5288;42.334;23.876;2023-10-19T12:32:20;56023.75;;;-140.56;39.73
10482;BME280;5288;42.334;23.876;2023-10-19T12:34:48;55982.25;;;-140.56;39.89
10482;BME280;5288;42.334;23.876;2023-10-19T12:37:18;56029.69;;;-140.56;39.87
10482;BME280;5288;42.334;23.876;2023-10-19T12:39:45;56057.34;;;-140.56;40.10
10482;BME280;5288;42.334;23.876;2023-10-19T12:42:16;56065.25;;;-140.56;41.14
10482;BME280;5288;42.334;23.876;2023-10-19T12:44:43;56081.06;;;-140.56;42.21
10482;BME280;5288;42.334;23.876;2023-10-19T12:47:10;56015.84;;;-140.56;41.81